Terminal Aerodrome Forecast
Issued by NWS

Home | Current Version | Previous Version | Text Only | Print | Product List | Glossary On
Versions: 1 2 3 4 5 6 7 8 9 10 11 12
000
FTUS45 KABQ 292340
TAFGUP
TAF
KGUP 292340Z 3000/3024 20010G17KT P6SM FEW120
     FM300200 22007KT P6SM SKC
     FM300400 VRB03KT P6SM SKC
     FM301800 22008KT P6SM FEW120
     FM302100 23011G20KT P6SM SCT120=

USA.gov is the U.S. government's official web portal to all federal, state and local government web resources and services.